Time;durP1;ratioP1;P1;durP2;ratioP2;P2;SDS_P1;SDS_P2;PMS_P1;PMS_P2;Temp;Humidity;BMP_temperature;BMP_pressure;BME280_temperature;BME280_humidity;BME280_pressure;Samples;Min_cycle;Max_cycle;Signal;HPM_P1;HPM_P2
2023/09/29 00:01:33;;;;;;;6.00;2.00;;;;;;;16.10;78.01;99460.88;5001760;28;20078;-49
2023/09/29 00:04:01;;;;;;;8.15;2.00;;;;;;;16.12;77.77;99466.91;5021615;28;20049;-52
2023/09/29 00:06:28;;;;;;;6.97;2.55;;;;;;;16.15;78.23;99466.75;5005589;28;20050;-50
2023/09/29 00:08:55;;;;;;;5.90;2.15;;;;;;;16.18;78.21;99461.44;5005163;28;20046;-49
2023/09/29 00:11:22;;;;;;;6.15;1.55;;;;;;;16.18;77.78;99456.22;5000397;28;20668;-46
2023/09/29 00:13:49;;;;;;;6.00;2.30;;;;;;;16.21;78.27;99459.63;5001391;28;20079;-48
2023/09/29 00:16:15;;;;;;;10.23;2.58;;;;;;;16.22;77.88;99469.19;5005794;28;20116;-47
2023/09/29 00:18:42;;;;;;;7.53;2.92;;;;;;;16.23;78.22;99466.50;5002564;28;20046;-47
2023/09/29 00:21:09;;;;;;;5.18;2.20;;;;;;;16.27;78.33;99469.84;5018033;28;20057;-47
2023/09/29 00:23:36;;;;;;;4.90;1.80;;;;;;;16.28;77.98;99466.34;4998235;28;20050;-49
2023/09/29 00:26:04;;;;;;;5.28;1.75;;;;;;;16.31;77.59;99471.44;5001915;28;20518;-49
2023/09/29 00:28:32;;;;;;;5.68;2.10;;;;;;;16.31;78.72;99472.31;4999206;28;20054;-47
2023/09/29 00:31:00;;;;;;;6.22;1.85;;;;;;;16.33;78.30;99482.72;4998627;28;20053;-48
2023/09/29 00:33:27;;;;;;;6.57;2.17;;;;;;;16.34;77.78;99491.41;5003721;28;20050;-47
2023/09/29 00:35:58;;;;;;;6.57;2.20;;;;;;;16.35;78.00;99499.16;5001986;28;20053;-48
2023/09/29 00:38:25;;;;;;;7.13;3.55;;;;;;;16.37;78.53;99507.81;4997884;28;20136;-47
2023/09/29 00:40:53;;;;;;;5.75;2.72;;;;;;;16.39;78.27;99506.03;5000287;28;20100;-48
2023/09/29 00:43:21;;;;;;;5.47;2.00;;;;;;;16.35;77.71;99525.31;5005087;28;20066;-52
2023/09/29 00:45:49;;;;;;;5.63;2.33;;;;;;;16.29;77.80;99525.53;4997631;28;20506;-50
2023/09/29 00:48:19;;;;;;;4.20;1.70;;;;;;;16.21;77.51;99522.34;5003076;28;20060;-50
2023/09/29 00:50:47;;;;;;;4.00;1.95;;;;;;;16.10;77.69;99518.34;5002688;28;20097;-50
2023/09/29 00:53:18;;;;;;;4.47;2.50;;;;;;;15.98;77.66;99522.22;5000213;28;20743;-50
2023/09/29 00:55:48;;;;;;;5.32;1.80;;;;;;;15.89;76.63;99523.34;5000040;28;20050;-48
2023/09/29 00:58:17;;;;;;;;;;;;;;;15.63;77.18;99527.66;5006182;28;20081;-46
2023/09/29 01:00:45;;;;;;;2.85;1.55;;;;;;;15.66;76.80;99527.56;5001054;28;20631;-48
2023/09/29 01:03:15;;;;;;;4.10;1.63;;;;;;;15.63;77.08;99535.50;5005618;28;20602;-45
2023/09/29 01:05:45;;;;;;;4.30;2.20;;;;;;;15.60;76.93;99538.19;5000950;28;20093;-49
2023/09/29 01:08:15;;;;;;;4.63;2.25;;;;;;;15.56;76.80;99531.38;4999378;28;20054;-47
2023/09/29 01:10:44;;;;;;;3.70;1.73;;;;;;;15.51;77.16;99525.44;5004791;28;20104;-48
2023/09/29 01:13:12;;;;;;;4.95;2.20;;;;;;;15.47;76.81;99542.09;5002549;28;20496;-49
2023/09/29 01:15:39;;;;;;;3.63;2.20;;;;;;;15.45;77.10;99543.91;4997922;28;20057;-50
2023/09/29 01:18:07;;;;;;;6.57;2.42;;;;;;;15.45;77.20;99556.94;5003584;28;20066;-50
2023/09/29 01:20:37;;;;;;;4.25;2.13;;;;;;;15.43;77.08;99559.59;5001515;28;20057;-50
2023/09/29 01:23:04;;;;;;;4.30;1.90;;;;;;;15.41;76.97;99549.22;4997346;28;20898;-48
2023/09/29 01:25:32;;;;;;;5.20;2.13;;;;;;;15.40;77.16;99546.66;4999311;28;20120;-48
2023/09/29 01:27:59;;;;;;;5.45;2.10;;;;;;;15.39;77.42;99551.03;5008581;28;20133;-49
2023/09/29 01:30:27;;;;;;;5.30;2.08;;;;;;;15.37;77.45;99544.97;5023831;28;20054;-47
2023/09/29 01:32:57;;;;;;;4.80;1.30;;;;;;;15.36;76.87;99535.47;5005496;28;20052;-52
2023/09/29 01:35:24;;;;;;;6.10;2.65;;;;;;;15.34;76.88;99547.72;5017832;28;20687;-45
2023/09/29 01:37:53;;;;;;;4.97;2.13;;;;;;;15.37;77.19;99550.19;5016007;28;20174;-51
2023/09/29 01:40:21;;;;;;;5.78;1.73;;;;;;;15.37;77.11;99563.25;4997088;28;20057;-48
2023/09/29 01:42:49;;;;;;;4.55;2.17;;;;;;;15.39;76.89;99560.59;5003136;28;20046;-49
2023/09/29 01:45:17;;;;;;;4.85;2.00;;;;;;;15.38;76.81;99558.91;5020258;28;20050;-46
2023/09/29 01:47:47;;;;;;;4.15;1.95;;;;;;;15.38;76.51;99544.09;5004174;28;20054;-46
2023/09/29 01:50:16;;;;;;;;;;;;;;;15.23;77.04;99539.34;4999722;28;20086;-46
2023/09/29 01:52:44;;;;;;;4.70;2.38;;;;;;;15.33;76.31;99551.19;5000668;28;19921;-52
2023/09/29 01:55:19;;;;;;;6.95;2.13;;;;;;;15.33;76.99;99553.81;4998948;28;20050;-49
2023/09/29 01:57:47;;;;;;;6.50;2.15;;;;;;;15.33;77.08;99545.97;4997133;28;20406;-50
2023/09/29 02:00:19;;;;;;;6.35;2.13;;;;;;;15.32;76.53;99544.28;4993722;28;20050;-51
2023/09/29 02:02:47;;;;;;;5.93;2.85;;;;;;;15.31;76.69;99550.41;4988237;28;20101;-48
2023/09/29 02:05:16;;;;;;;4.75;2.30;;;;;;;15.28;76.38;99537.44;5009595;28;20042;-47
2023/09/29 02:07:44;;;;;;;3.78;1.83;;;;;;;15.24;75.74;99544.53;5000935;28;20069;-46
2023/09/29 02:10:11;;;;;;;17.90;1.75;;;;;;;15.19;75.88;99541.19;5013131;28;20058;-50
2023/09/29 02:12:46;;;;;;;115.53;4.53;;;;;;;15.10;75.93;99550.13;5000600;28;20042;-50
2023/09/29 02:15:15;;;;;;;3.40;1.52;;;;;;;15.06;76.15;99564.16;5004839;28;20117;-48
2023/09/29 02:17:43;;;;;;;3.35;2.22;;;;;;;15.03;76.23;99564.28;5006590;28;20045;-49
2023/09/29 02:20:13;;;;;;;3.70;1.50;;;;;;;15.01;75.41;99560.84;4995231;28;20093;-50
2023/09/29 02:22:41;;;;;;;4.07;1.55;;;;;;;14.98;75.67;99566.16;4999323;28;20058;-47
2023/09/29 02:25:10;;;;;;;4.50;1.50;;;;;;;14.96;76.08;99573.19;5001908;28;20041;-48
2023/09/29 02:27:37;;;;;;;2.92;1.73;;;;;;;14.94;75.45;99575.81;5004294;28;20407;-48
2023/09/29 02:30:05;;;;;;;4.22;1.38;;;;;;;14.90;75.90;99575.03;5015437;28;20521;-50
2023/09/29 02:32:34;;;;;;;2.42;1.00;;;;;;;14.87;75.55;99569.94;5007118;28;20107;-48
2023/09/29 02:35:01;;;;;;;4.82;2.53;;;;;;;14.85;75.82;99570.84;4999428;28;20544;-49
2023/09/29 02:37:27;;;;;;;3.30;2.05;;;;;;;14.82;75.72;99577.00;5002604;28;20451;-49
2023/09/29 02:39:55;;;;;;;4.00;2.00;;;;;;;14.79;75.61;99582.31;5009366;28;20053;-46
2023/09/29 02:42:22;;;;;;;2.45;1.10;;;;;;;14.77;75.55;99578.91;5005644;28;20046;-47
2023/09/29 02:44:48;;;;;;;3.35;1.63;;;;;;;14.74;75.54;99576.34;5006004;28;20053;-55
2023/09/29 02:47:15;;;;;;;3.10;1.35;;;;;;;14.68;75.70;99579.97;5002201;28;20060;-49
2023/09/29 02:49:42;;;;;;;4.10;1.60;;;;;;;14.63;75.96;99587.91;5012897;28;20045;-51
2023/09/29 02:52:09;;;;;;;5.22;1.75;;;;;;;14.61;75.32;99588.84;5003668;28;20050;-47
2023/09/29 02:54:36;;;;;;;2.60;1.30;;;;;;;14.58;74.96;99595.00;5003729;28;20049;-52
2023/09/29 02:57:02;;;;;;;3.53;1.45;;;;;;;14.56;75.42;99602.00;5002787;28;20046;-49
2023/09/29 02:59:33;;;;;;;3.63;1.95;;;;;;;14.52;75.58;99600.38;5001594;28;20061;-50
2023/09/29 03:02:03;;;;;;;3.78;1.80;;;;;;;14.51;76.00;99604.75;5006627;28;20621;-46
2023/09/29 03:04:32;;;;;;;15.30;1.63;;;;;;;14.48;75.34;99603.94;5002664;28;20149;-47
2023/09/29 03:06:59;;;;;;;57.97;2.78;;;;;;;14.48;75.29;99614.38;5001973;28;20050;-49
2023/09/29 03:09:29;;;;;;;63.90;2.97;;;;;;;14.46;75.47;99610.97;5000324;28;20057;-49
2023/09/29 03:11:59;;;;;;;67.32;2.58;;;;;;;14.44;75.84;99615.34;4999475;28;20454;-48
2023/09/29 03:14:26;;;;;;;37.60;2.13;;;;;;;14.42;75.68;99624.97;5003235;28;20419;-50
2023/09/29 03:16:54;;;;;;;24.80;2.33;;;;;;;14.39;75.42;99623.31;5001003;28;20456;-48
2023/09/29 03:19:20;;;;;;;10.73;1.10;;;;;;;14.37;75.68;99627.69;5006852;28;20050;-51
2023/09/29 03:21:48;;;;;;;10.18;1.27;;;;;;;14.34;75.58;99639.03;5001273;28;20057;-52
2023/09/29 03:24:15;;;;;;;20.85;1.35;;;;;;;14.32;75.53;99645.19;5006003;28;20061;-48
2023/09/29 03:26:41;;;;;;;12.30;1.65;;;;;;;14.30;75.24;99646.97;5001334;28;20058;-50
2023/09/29 03:29:08;;;;;;;6.40;1.10;;;;;;;14.27;75.38;99651.38;4998863;28;20069;-49
2023/09/29 03:31:35;;;;;;;7.97;1.33;;;;;;;14.25;75.32;99649.66;4987902;28;20054;-50
2023/09/29 03:34:02;;;;;;;5.43;1.55;;;;;;;14.25;75.50;99655.75;5002391;28;20566;-51
2023/09/29 03:36:30;;;;;;;2.25;1.33;;;;;;;14.27;75.26;99660.91;5005500;28;20086;-50
2023/09/29 03:38:59;;;;;;;4.05;1.50;;;;;;;14.30;75.59;99666.06;5002445;28;20046;-47
2023/09/29 03:41:26;;;;;;;2.63;1.40;;;;;;;14.32;75.58;99666.88;4999865;28;20062;-49
2023/09/29 03:43:52;;;;;;;3.80;0.88;;;;;;;14.34;75.71;99672.91;5000518;28;20137;-45
2023/09/29 03:46:20;;;;;;;3.58;1.17;;;;;;;14.38;75.77;99671.06;5006626;28;20053;-50
2023/09/29 03:48:47;;;;;;;2.22;0.88;;;;;;;14.38;75.91;99671.94;5004730;28;20152;-47
2023/09/29 03:51:24;;;;;;;2.08;1.00;;;;;;;14.35;75.97;99672.00;5000661;28;20073;-47
2023/09/29 03:53:52;;;;;;;2.72;1.08;;;;;;;14.38;75.51;99671.94;4989210;28;20042;-47
2023/09/29 03:56:22;;;;;;;4.95;1.63;;;;;;;14.38;76.03;99677.16;4998385;28;20061;-49
2023/09/29 03:58:50;;;;;;;6.20;1.52;;;;;;;14.39;76.22;99676.25;5016762;28;20053;-49
2023/09/29 04:01:17;;;;;;;6.07;2.38;;;;;;;14.38;75.86;99671.94;5003590;28;20475;-46
2023/09/29 04:03:44;;;;;;;8.98;2.45;;;;;;;14.37;75.93;99674.56;5000566;28;20149;-49
2023/09/29 04:06:11;;;;;;;10.15;2.55;;;;;;;14.35;75.55;99677.22;5002672;28;20038;-50
2023/09/29 04:08:38;;;;;;;10.88;2.25;;;;;;;14.32;76.18;99681.66;4997335;28;20608;-50
2023/09/29 04:11:05;;;;;;;9.85;2.75;;;;;;;14.28;76.28;99683.47;4980732;28;20057;-47
2023/09/29 04:13:33;;;;;;;6.70;2.65;;;;;;;14.28;75.92;99691.28;5003663;28;20589;-48
2023/09/29 04:16:05;;;;;;;10.93;3.53;;;;;;;14.28;76.30;99696.50;5000908;28;20228;-47
2023/09/29 04:18:32;;;;;;;7.97;3.28;;;;;;;14.29;76.34;99708.66;5005865;28;20474;-47
2023/09/29 04:21:01;;;;;;;8.38;2.67;;;;;;;14.30;76.21;99710.34;5004898;28;20049;-48
2023/09/29 04:23:28;;;;;;;7.80;2.85;;;;;;;14.29;76.57;99713.84;5003073;28;20117;-50
2023/09/29 04:25:55;;;;;;;10.75;2.80;;;;;;;14.29;76.69;99719.06;5005935;28;20053;-50
2023/09/29 04:28:22;;;;;;;9.10;2.58;;;;;;;14.30;76.79;99719.91;5000513;28;20047;-49
2023/09/29 04:30:49;;;;;;;9.13;2.60;;;;;;;14.30;76.12;99720.78;5000949;28;20069;-49
2023/09/29 04:33:15;;;;;;;8.32;2.90;;;;;;;14.30;76.26;99728.59;4998887;28;20080;-47
2023/09/29 04:35:42;;;;;;;9.70;2.88;;;;;;;14.32;76.55;99732.00;5005435;28;20046;-49
2023/09/29 04:38:10;;;;;;;8.13;3.00;;;;;;;14.33;76.68;99736.34;5005616;28;20100;-50
2023/09/29 04:40:37;;;;;;;9.85;2.35;;;;;;;14.35;76.74;99744.94;4998702;28;20421;-52
2023/09/29 04:43:05;;;;;;;10.27;4.00;;;;;;;14.37;76.71;99753.59;5008660;28;20125;-50
2023/09/29 04:45:33;;;;;;;8.32;2.78;;;;;;;14.37;76.76;99753.59;4992101;28;20440;-48
2023/09/29 04:48:01;;;;;;;8.65;2.30;;;;;;;14.38;76.57;99755.31;5001165;28;20083;-50
2023/09/29 04:50:29;;;;;;;7.88;3.63;;;;;;;14.39;76.80;99754.41;4999028;28;20488;-53
2023/09/29 04:52:56;;;;;;;7.80;2.78;;;;;;;14.41;77.55;99759.59;5002831;28;20076;-48
2023/09/29 04:55:23;;;;;;;9.75;2.60;;;;;;;14.40;77.00;99758.72;4995869;28;20169;-47
2023/09/29 04:57:52;;;;;;;7.55;2.40;;;;;;;14.42;76.83;99770.88;5002743;28;20053;-51
2023/09/29 05:00:19;;;;;;;9.82;2.50;;;;;;;14.42;77.10;99765.66;5003539;28;20061;-50
2023/09/29 05:02:46;;;;;;;7.22;2.50;;;;;;;14.40;76.99;99761.31;4999215;28;20058;-49
2023/09/29 05:05:13;;;;;;;7.05;2.28;;;;;;;14.40;77.13;99769.13;5000002;28;20503;-49
2023/09/29 05:07:43;;;;;;;5.22;2.38;;;;;;;14.39;77.46;99775.25;5007908;28;20056;-51
2023/09/29 05:10:11;;;;;;;7.47;2.38;;;;;;;14.37;77.16;99777.06;5003066;28;20066;-48
2023/09/29 05:12:38;;;;;;;11.18;2.45;;;;;;;14.36;77.29;99783.13;5000467;28;20046;-48
2023/09/29 05:15:05;;;;;;;6.50;2.08;;;;;;;14.37;77.18;99784.88;4995669;28;20108;-52
2023/09/29 05:17:32;;;;;;;8.52;2.65;;;;;;;14.37;77.50;99794.41;5001801;28;20053;-49
2023/09/29 05:20:16;;;;;;;9.32;2.00;;;;;;;14.36;77.43;99793.56;5000890;28;20069;-51
2023/09/29 05:22:43;;;;;;;5.22;2.55;;;;;;;14.35;76.90;99807.47;5006921;28;20046;-50
2023/09/29 05:25:10;;;;;;;5.85;1.65;;;;;;;14.34;77.20;99805.78;4997991;28;20058;-50
2023/09/29 05:27:36;;;;;;;9.63;1.98;;;;;;;14.35;77.19;99806.59;5002752;28;20050;-49
2023/09/29 05:30:03;;;;;;;3.78;1.73;;;;;;;14.37;77.05;99816.13;4995991;28;20190;-52
2023/09/29 05:32:30;;;;;;;3.67;1.23;;;;;;;14.35;77.02;99820.50;5002560;28;20042;-50
2023/09/29 05:34:58;;;;;;;5.32;1.38;;;;;;;14.33;77.43;99832.72;4997730;28;20053;-50
2023/09/29 05:37:25;;;;;;;5.85;2.63;;;;;;;14.30;77.13;99835.38;5000801;28;20060;-49
2023/09/29 05:39:52;;;;;;;4.07;1.58;;;;;;;14.26;77.92;99838.94;4999547;28;20077;-50
2023/09/29 05:42:21;;;;;;;5.82;1.90;;;;;;;14.27;77.54;99851.06;5001807;28;20061;-49
2023/09/29 05:44:59;;;;;;;5.60;2.33;;;;;;;14.27;77.75;99851.06;5000194;28;20050;-51
2023/09/29 05:47:26;;;;;;;6.13;1.85;;;;;;;14.32;77.75;99853.59;5004111;28;20056;-50
2023/09/29 05:49:52;;;;;;;8.10;1.90;;;;;;;14.34;77.88;99873.50;5003652;28;20049;-49
2023/09/29 05:52:39;;;;;;;5.47;2.05;;;;;;;14.37;77.87;99864.75;4999900;28;20078;-48
2023/09/29 05:55:06;;;;;;;9.25;2.88;;;;;;;14.40;78.18;99889.00;4996036;28;20061;-52
2023/09/29 05:57:33;;;;;;;6.40;2.28;;;;;;;14.42;78.24;99888.13;4994125;28;20057;-53
2023/09/29 05:59:59;;;;;;;6.82;2.38;;;;;;;14.43;77.78;99900.25;4995997;28;20120;-50
2023/09/29 06:02:26;;;;;;;6.35;2.20;;;;;;;14.42;78.24;99906.38;4997378;28;20054;-48
2023/09/29 06:04:53;;;;;;;6.25;1.83;;;;;;;14.40;77.85;99915.03;4993867;28;20516;-50
2023/09/29 06:07:19;;;;;;;4.43;2.30;;;;;;;14.38;77.91;99924.66;4998274;28;20053;-50
2023/09/29 06:09:46;;;;;;;8.95;2.13;;;;;;;14.36;77.67;99929.03;4997497;28;20050;-49
2023/09/29 06:12:13;;;;;;;4.22;1.45;;;;;;;14.33;77.87;99939.53;4996769;28;20057;-52
2023/09/29 06:14:39;;;;;;;9.20;2.22;;;;;;;14.31;77.67;99953.47;4995552;28;21551;-50
2023/09/29 06:17:06;;;;;;;6.28;2.28;;;;;;;14.28;77.75;99959.59;4997115;28;20050;-52
2023/09/29 06:19:32;;;;;;;7.13;2.20;;;;;;;14.25;77.84;99957.03;4996314;28;20049;-49
2023/09/29 06:22:00;;;;;;;5.30;2.35;;;;;;;14.22;77.75;99970.16;5001534;28;20061;-46
2023/09/29 06:24:27;;;;;;;6.20;2.30;;;;;;;14.21;78.33;99971.00;4998559;28;20050;-50
2023/09/29 06:26:53;;;;;;;12.98;3.08;;;;;;;14.18;77.92;99977.16;4994441;28;20042;-50
2023/09/29 06:29:23;;;;;;;10.55;2.08;;;;;;;14.18;77.76;99986.72;5004912;28;20053;-49
2023/09/29 06:31:50;;;;;;;6.72;1.92;;;;;;;14.16;78.16;99993.69;5002842;28;20465;-49
2023/09/29 06:34:16;;;;;;;8.27;2.85;;;;;;;14.13;77.85;99985.06;5003872;28;20447;-51
2023/09/29 06:36:45;;;;;;;7.40;1.98;;;;;;;14.14;77.67;100001.53;4996049;28;20076;-51
2023/09/29 06:39:14;;;;;;;5.85;1.80;;;;;;;14.13;77.62;100012.84;5008454;28;20364;-49
2023/09/29 06:41:40;;;;;;;7.82;1.77;;;;;;;14.12;77.63;100011.97;5008331;28;20610;-50
2023/09/29 06:44:07;;;;;;;7.28;2.20;;;;;;;14.10;77.71;100026.78;4999518;28;20038;-53
2023/09/29 06:46:34;;;;;;;5.85;1.48;;;;;;;14.09;77.73;100029.41;4997485;28;20038;-52
2023/09/29 06:49:02;;;;;;;7.07;2.20;;;;;;;14.09;78.08;100035.47;4994692;28;20053;-47
2023/09/29 06:51:28;;;;;;;4.28;1.48;;;;;;;14.09;77.56;100039.84;4999702;28;20049;-50
2023/09/29 06:53:55;;;;;;;6.78;2.67;;;;;;;14.10;76.99;100042.41;4998106;28;20062;-51
2023/09/29 06:56:22;;;;;;;7.18;2.08;;;;;;;14.09;77.68;100056.28;4997073;28;20478;-51
2023/09/29 06:58:49;;;;;;;5.50;1.60;;;;;;;14.11;77.30;100053.66;4996782;28;20073;-51
2023/09/29 07:01:16;;;;;;;6.30;2.35;;;;;;;14.10;77.34;100071.06;4994913;28;20059;-48
2023/09/29 07:03:45;;;;;;;6.38;1.83;;;;;;;14.10;77.96;100078.88;4993496;28;20073;-52
2023/09/29 07:06:12;;;;;;;7.43;2.22;;;;;;;14.11;77.20;100070.16;4998828;28;20058;-48
2023/09/29 07:08:39;;;;;;;4.80;1.75;;;;;;;14.13;77.52;100077.97;4994083;28;20291;-49
2023/09/29 07:11:06;;;;;;;6.47;1.77;;;;;;;14.17;77.41;100092.66;4991380;28;20065;-51
2023/09/29 07:13:33;;;;;;;7.13;1.20;;;;;;;14.20;77.41;100092.59;4997740;28;20045;-48
2023/09/29 07:16:00;;;;;;;13.35;1.98;;;;;;;14.25;77.31;100102.91;4993105;28;20483;-48
2023/09/29 07:18:26;;;;;;;5.15;1.40;;;;;;;14.26;77.34;100104.66;4997704;28;20070;-50
2023/09/29 07:20:53;;;;;;;5.10;1.30;;;;;;;14.29;77.24;100120.25;4989512;28;20062;-47
2023/09/29 07:23:21;;;;;;;8.32;2.13;;;;;;;14.33;76.56;100121.91;4995300;28;20902;-50
2023/09/29 07:25:51;;;;;;;8.32;2.03;;;;;;;14.39;76.64;100132.22;4996988;28;20046;-48
2023/09/29 07:28:20;;;;;;;8.52;1.27;;;;;;;14.49;76.66;100132.06;4995508;28;20054;-50
2023/09/29 07:30:48;;;;;;;8.07;1.73;;;;;;;14.63;76.43;100143.06;4996155;28;20052;-47
2023/09/29 07:33:15;;;;;;;4.65;0.93;;;;;;;14.75;75.92;100143.75;4992602;28;20046;-49
2023/09/29 07:35:44;;;;;;;4.20;1.48;;;;;;;14.89;76.09;100152.22;4994749;28;20050;-50
2023/09/29 07:38:12;;;;;;;4.20;2.08;;;;;;;15.11;75.58;100156.16;4999745;28;20049;-50
2023/09/29 07:40:39;;;;;;;8.35;1.83;;;;;;;15.49;75.62;100158.84;4993249;28;20049;-51
2023/09/29 07:43:06;;;;;;;4.65;1.75;;;;;;;16.05;75.30;100157.66;5004577;28;20053;-48
2023/09/29 07:45:33;;;;;;;8.82;1.70;;;;;;;16.76;73.40;100167.22;5003733;28;20061;-50
2023/09/29 07:47:59;;;;;;;5.35;1.90;;;;;;;17.52;71.96;100172.09;4987339;28;20056;-49
2023/09/29 07:50:26;;;;;;;5.60;1.35;;;;;;;18.29;69.98;100178.50;4999958;28;20503;-51
2023/09/29 07:52:53;;;;;;;8.63;2.05;;;;;;;18.94;68.40;100186.78;5003131;28;20054;-51
2023/09/29 07:55:20;;;;;;;6.10;1.65;;;;;;;19.20;67.15;100192.91;5007637;28;20136;-51
2023/09/29 07:57:46;;;;;;;8.68;2.08;;;;;;;19.33;66.89;100192.47;5004775;28;20056;-50
2023/09/29 08:00:15;;;;;;;10.15;2.15;;;;;;;19.34;66.50;100196.78;5003961;28;20042;-49
2023/09/29 08:02:43;;;;;;;6.57;1.88;;;;;;;19.57;67.05;100189.81;5002272;28;20052;-48
2023/09/29 08:05:12;;;;;;;7.97;2.05;;;;;;;20.17;66.83;100191.91;5003361;28;20042;-50
2023/09/29 08:07:40;;;;;;;4.90;1.45;;;;;;;20.37;65.59;100206.00;5004826;28;20556;-49
2023/09/29 08:10:08;;;;;;;7.22;1.88;;;;;;;20.34;64.89;100211.38;5003490;28;20045;-50
2023/09/29 08:12:36;;;;;;;5.55;2.25;;;;;;;20.12;65.30;100217.50;5004247;28;20127;-50
2023/09/29 08:15:05;;;;;;;6.72;2.55;;;;;;;20.39;64.80;100222.56;4998841;28;20050;-51
2023/09/29 08:17:32;;;;;;;4.90;2.13;;;;;;;20.92;64.34;100223.03;5003262;28;20050;-51
2023/09/29 08:19:59;;;;;;;5.15;1.95;;;;;;;21.60;63.81;100219.16;5002802;28;20474;-51
2023/09/29 08:22:26;;;;;;;6.47;1.60;;;;;;;22.32;62.46;100218.44;5007614;28;20050;-54
2023/09/29 08:25:08;;;;;;;5.45;2.25;;;;;;;23.09;60.80;100226.03;5001090;28;20117;-51
2023/09/29 08:27:36;;;;;;;7.57;1.40;;;;;;;23.77;59.35;100229.50;5002194;28;20384;-51
2023/09/29 08:30:04;;;;;;;6.80;1.65;;;;;;;24.34;57.44;100229.91;4995799;28;20049;-52
2023/09/29 08:32:31;;;;;;;8.40;2.20;;;;;;;24.80;56.33;100236.94;5002942;28;20414;-49
2023/09/29 08:34:58;;;;;;;5.78;1.90;;;;;;;25.19;54.81;100241.75;5001055;28;20052;-49
2023/09/29 08:37:25;;;;;;;6.78;1.55;;;;;;;25.43;53.54;100234.06;5006485;28;20077;-51
2023/09/29 08:39:53;;;;;;;7.13;1.70;;;;;;;25.55;52.02;100248.34;5006294;28;20642;-50
2023/09/29 08:42:33;;;;;;;6.65;1.80;;;;;;;25.75;51.32;100248.91;5009885;28;20045;-53
2023/09/29 08:45:01;;;;;;;5.50;1.48;;;;;;;25.90;51.61;100247.94;4994563;28;20058;-49
2023/09/29 08:47:29;;;;;;;6.28;2.00;;;;;;;26.07;50.70;100261.91;5010177;28;20140;-48
2023/09/29 08:49:57;;;;;;;8.48;1.45;;;;;;;26.21;49.94;100262.81;5021850;28;20529;-49
2023/09/29 08:52:28;;;;;;;5.30;1.77;;;;;;;26.38;48.76;100256.44;5004036;28;20050;-47
2023/09/29 08:54:55;;;;;;;5.60;1.33;;;;;;;26.58;48.53;100262.22;5002963;28;20045;-50
2023/09/29 08:57:24;;;;;;;7.35;1.60;;;;;;;26.82;49.23;100267.69;4999469;28;20655;-49
2023/09/29 08:59:53;;;;;;;6.88;1.25;;;;;;;27.25;47.85;100271.84;5005465;28;20077;-50
2023/09/29 09:02:21;;;;;;;6.40;1.83;;;;;;;27.52;48.13;100270.88;4996069;28;20144;-49
2023/09/29 09:04:48;;;;;;;5.45;1.63;;;;;;;27.56;46.16;100268.84;5004062;28;20096;-47
2023/09/29 09:07:15;;;;;;;4.97;1.10;;;;;;;27.54;46.34;100268.09;5000706;28;20133;-48
2023/09/29 09:09:49;;;;;;;7.30;1.80;;;;;;;27.60;46.86;100270.34;4998504;28;20128;-50
2023/09/29 09:12:17;;;;;;;6.47;1.52;;;;;;;27.84;46.44;100277.53;5003629;28;20056;-47
2023/09/29 09:14:45;;;;;;;7.95;1.73;;;;;;;27.93;45.55;100271.53;4999955;28;20062;-49
2023/09/29 09:17:12;;;;;;;8.00;1.60;;;;;;;28.12;45.82;100290.63;4995971;28;20053;-47
2023/09/29 09:19:45;;;;;;;6.25;1.60;;;;;;;28.35;44.45;100291.63;5019076;28;20491;-50
2023/09/29 09:22:14;;;;;;;6.45;1.73;;;;;;;28.32;44.08;100294.53;5000055;28;20054;-50
2023/09/29 09:24:41;;;;;;;5.75;1.30;;;;;;;28.34;43.19;100297.94;5001194;28;20710;-48
2023/09/29 09:27:08;;;;;;;6.85;1.58;;;;;;;28.42;44.06;100308.88;4991931;28;20046;-51
2023/09/29 09:29:40;;;;;;;4.40;1.52;;;;;;;28.50;42.24;100302.13;5002109;28;20490;-48
2023/09/29 09:32:07;;;;;;;5.25;1.83;;;;;;;28.52;43.24;100310.84;4998210;28;20161;-50
2023/09/29 09:34:36;;;;;;;4.38;1.30;;;;;;;28.52;42.11;100314.34;5001961;28;20049;-48
2023/09/29 09:37:05;;;;;;;5.18;1.58;;;;;;;28.54;42.72;100322.25;5001233;28;20136;-52
2023/09/29 09:39:34;;;;;;;4.90;1.70;;;;;;;28.57;42.26;100333.50;5002213;28;20049;-49
2023/09/29 09:42:05;;;;;;;7.30;2.03;;;;;;;28.63;42.48;100331.34;5001350;28;20173;-49
2023/09/29 10:52:19;;;;;;;6.15;2.00;;;;;;;26.98;41.44;100418.16;1484886;26;20054;-47
2023/09/29 10:54:46;;;;;;;6.30;1.83;;;;;;;26.75;42.11;100428.44;5014987;28;20048;-49
2023/09/29 10:57:37;;;;;;;5.28;1.83;;;;;;;26.66;41.71;100430.75;5003611;28;20054;-47
2023/09/29 11:00:05;;;;;;;8.18;1.40;;;;;;;26.61;42.47;100432.84;5005488;28;20053;-49
2023/09/29 11:02:33;;;;;;;6.82;2.17;;;;;;;26.59;41.84;100429.44;5000448;28;20161;-51
2023/09/29 11:05:04;;;;;;;4.30;1.33;;;;;;;26.53;42.10;100433.34;5017991;28;20046;-46
2023/09/29 11:07:49;;;;;;;10.75;1.48;;;;;;;26.46;41.69;100436.47;5018476;28;20140;-48
2023/09/29 11:10:18;;;;;;;5.60;1.98;;;;;;;26.32;41.59;100440.88;5024536;28;20081;-54
2023/09/29 11:12:47;;;;;;;5.03;2.15;;;;;;;26.17;42.38;100440.84;5021431;28;20426;-50
2023/09/29 11:15:14;;;;;;;5.15;2.08;;;;;;;26.17;42.65;100450.59;5021848;28;20053;-55
2023/09/29 11:20:26;;;;;;;5.53;2.70;;;;;;;25.89;42.14;100453.19;5055491;27;20391;-50
2023/09/29 11:23:08;;;;;;;7.38;2.92;;;;;;;25.65;42.08;100440.47;5014413;28;20137;-48
2023/09/29 11:25:54;;;;;;;7.13;3.90;;;;;;;25.41;42.19;100462.16;5020219;28;20064;-47
2023/09/29 11:28:21;;;;;;;5.72;3.72;;;;;;;25.33;43.07;100461.75;5019303;28;20558;-48
2023/09/29 11:30:48;;;;;;;7.07;2.92;;;;;;;25.33;43.29;100461.75;5017362;28;20666;-47
2023/09/29 11:33:15;;;;;;;5.72;2.55;;;;;;;25.38;43.53;100467.66;5019818;28;20140;-52
2023/09/29 11:35:45;;;;;;;3.35;1.42;;;;;;;25.43;43.48;100470.00;5018296;28;20447;-48
2023/09/29 11:38:31;;;;;;;5.72;3.20;;;;;;;25.37;43.29;100467.72;5017748;28;20103;-48
2023/09/29 11:40:57;;;;;;;5.55;3.47;;;;;;;25.27;43.31;100470.91;5019869;28;20056;-49
2023/09/29 11:43:25;;;;;;;3.88;2.70;;;;;;;25.28;43.85;100479.72;5017338;28;20049;-51
2023/09/29 11:45:52;;;;;;;4.93;3.63;;;;;;;25.29;43.41;100479.63;5018864;28;20096;-52
2023/09/29 11:48:19;;;;;;;7.82;3.88;;;;;;;25.26;43.64;100474.50;5019471;28;21633;-52
2023/09/29 11:50:46;;;;;;;6.38;3.45;;;;;;;25.19;43.36;100485.56;5018095;28;20049;-49
2023/09/29 11:53:13;;;;;;;7.03;3.08;;;;;;;25.09;43.29;100491.38;5021342;28;20131;-56
2023/09/29 11:55:39;;;;;;;5.15;2.53;;;;;;;24.98;43.08;100485.84;5013713;28;20197;-50
2023/09/29 11:58:08;;;;;;;7.70;3.08;;;;;;;24.73;43.03;100495.13;5016361;28;20120;-53
2023/09/29 12:00:36;;;;;;;5.57;3.33;;;;;;;24.63;43.65;100495.63;5016271;28;20062;-50
2023/09/29 12:03:05;;;;;;;6.40;2.60;;;;;;;24.52;43.86;100501.53;5019165;28;20042;-50
2023/09/29 12:05:33;;;;;;;6.70;3.33;;;;;;;24.51;43.93;100501.59;5018765;28;20054;-50
2023/09/29 12:08:04;;;;;;;10.20;3.15;;;;;;;24.46;44.10;100503.66;5015480;28;20064;-50
2023/09/29 12:10:31;;;;;;;7.05;3.75;;;;;;;24.50;43.89;100510.50;5017180;28;20111;-51
2023/09/29 12:12:59;;;;;;;3.40;2.40;;;;;;;24.51;44.30;100515.69;5012958;28;20046;-52
2023/09/29 12:15:26;;;;;;;6.65;3.28;;;;;;;24.49;44.33;100514.91;5010779;28;20142;-50
2023/09/29 12:17:53;;;;;;;8.88;3.08;;;;;;;24.39;44.19;100514.56;5012774;28;20053;-49
2023/09/29 12:20:21;;;;;;;6.60;3.60;;;;;;;24.44;44.70;100526.69;5015212;28;20081;-53
2023/09/29 12:22:50;;;;;;;5.65;2.55;;;;;;;24.46;43.86;100530.13;5015709;28;20056;-52
2023/09/29 12:25:17;;;;;;;7.78;3.33;;;;;;;24.44;44.02;100530.19;5011078;28;20072;-48
2023/09/29 12:27:47;;;;;;;4.97;2.33;;;;;;;24.36;44.01;100525.34;5015507;28;20045;-49
2023/09/29 12:30:14;;;;;;;7.20;2.70;;;;;;;24.26;44.00;100526.75;5003459;28;20043;-54
2023/09/29 12:32:42;;;;;;;8.70;4.28;;;;;;;24.29;44.49;100518.66;5001722;28;20065;-49
2023/09/29 12:35:09;;;;;;;5.55;2.83;;;;;;;24.37;44.97;100532.34;5001266;28;20084;-52
2023/09/29 12:37:37;;;;;;;5.28;1.60;;;;;;;24.47;44.65;100529.19;4994587;28;20407;-50
2023/09/29 12:40:09;;;;;;;5.82;2.53;;;;;;;24.55;44.80;100529.63;4999271;28;20510;-49
2023/09/29 12:42:35;;;;;;;6.63;3.05;;;;;;;24.54;44.38;100527.91;4998584;28;20042;-49
2023/09/29 12:45:02;;;;;;;4.93;2.47;;;;;;;24.53;44.76;100531.50;5000252;28;20697;-49